createdAt,value
2023-05-14T00:00:32.353Z,98098.88
2023-05-14T00:03:56.525Z,98084.16
2023-05-14T00:07:00.500Z,98087.50
2023-05-14T00:10:04.592Z,98097.75
2023-05-14T00:13:08.207Z,98087.91
2023-05-14T00:16:13.649Z,98096.25
2023-05-14T00:19:18.895Z,98092.44
2023-05-14T00:22:22.901Z,98094.44
2023-05-14T00:25:26.585Z,98088.81
2023-05-14T00:28:33.004Z,98087.97
2023-05-14T00:31:37.925Z,98089.16
2023-05-14T00:34:41.807Z,98085.06
2023-05-14T00:37:46.508Z,98078.78
2023-05-14T00:40:52.121Z,98077.75
2023-05-14T00:43:55.627Z,98076.78
2023-05-14T00:47:01.904Z,98080.50
2023-05-14T00:50:06.552Z,98079.09
2023-05-14T00:53:11.474Z,98068.50
2023-05-14T00:56:16.665Z,98070.00
2023-05-14T00:59:20.741Z,98075.56
2023-05-14T01:02:25.807Z,98072.44
2023-05-14T01:05:36.760Z,98061.19
2023-05-14T01:08:50.819Z,98047.94
2023-05-14T01:12:02.296Z,98041.63
2023-05-14T01:15:12.552Z,98033.00
2023-05-14T01:18:20.324Z,98042.88
2023-05-14T01:21:38.813Z,98039.13
2023-05-14T01:24:42.597Z,98040.94
2023-05-14T01:27:54.351Z,98033.44
2023-05-14T01:31:03.602Z,98039.00
2023-05-14T01:34:08.088Z,98039.53
2023-05-14T01:37:14.100Z,98037.53
2023-05-14T01:40:38.039Z,98030.25
2023-05-14T01:43:42.615Z,98024.41
2023-05-14T01:46:46.105Z,98016.63
2023-05-14T01:49:50.249Z,98025.31
2023-05-14T01:52:56.719Z,98010.63
2023-05-14T01:56:00.824Z,98008.25
2023-05-14T01:59:04.629Z,98000.16
2023-05-14T02:02:08.623Z,98013.81
2023-05-14T02:05:13.589Z,98012.56
2023-05-14T02:08:19.168Z,98007.81
2023-05-14T02:11:22.778Z,98008.13
2023-05-14T02:14:26.571Z,98010.00
2023-05-14T02:17:30.055Z,98003.75
2023-05-14T02:20:33.944Z,98014.03
2023-05-14T02:23:42.062Z,98006.09
2023-05-14T02:26:46.817Z,98012.34
2023-05-14T02:29:50.436Z,98007.47
2023-05-14T02:32:54.446Z,98009.06
2023-05-14T02:35:58.101Z,98007.69
2023-05-14T02:39:04.770Z,98013.16
2023-05-14T02:42:08.872Z,98015.00
2023-05-14T02:45:12.955Z,98007.19
2023-05-14T02:48:16.835Z,97997.50
2023-05-14T02:51:21.298Z,97994.84
2023-05-14T02:54:26.394Z,97999.88
2023-05-14T02:57:30.285Z,98009.28
2023-05-14T03:00:33.888Z,98009.03
2023-05-14T03:03:38.388Z,97977.09
2023-05-14T03:06:42.657Z,97964.38
2023-05-14T03:09:48.427Z,97964.03
2023-05-14T03:12:52.094Z,97973.03
2023-05-14T03:15:56.963Z,97983.44
2023-05-14T03:19:00.759Z,97957.97
2023-05-14T03:22:05.222Z,97968.38
2023-05-14T03:25:10.929Z,97955.16
2023-05-14T03:28:15.091Z,97959.69
2023-05-14T03:31:18.891Z,97953.22
2023-05-14T03:34:23.149Z,97950.72
2023-05-14T03:37:27.146Z,97951.00
2023-05-14T03:40:32.396Z,97955.78
2023-05-14T03:43:36.327Z,97934.19
2023-05-14T03:46:40.399Z,97942.91
2023-05-14T03:49:44.013Z,97950.44
2023-05-14T03:52:50.960Z,97956.09
2023-05-14T03:55:55.780Z,97961.34
2023-05-14T03:58:59.542Z,97962.44
2023-05-14T04:02:03.274Z,97955.72
2023-05-14T04:05:07.908Z,97956.28
2023-05-14T04:08:11.580Z,97964.81
2023-05-14T04:11:17.061Z,97968.75
2023-05-14T04:14:20.732Z,97967.72
2023-05-14T04:17:25.767Z,97963.63
2023-05-14T04:20:29.397Z,97958.88
2023-05-14T04:23:33.341Z,97959.19
2023-05-14T04:26:38.197Z,97956.78
2023-05-14T04:29:42.171Z,97960.63
2023-05-14T04:32:45.699Z,97971.66
2023-05-14T04:35:49.701Z,97957.53
2023-05-14T04:38:53.192Z,97965.38
2023-05-14T04:41:58.666Z,97965.66
2023-05-14T04:45:02.244Z,97964.09
2023-05-14T04:48:07.912Z,97950.25
2023-05-14T04:51:11.610Z,97940.00
2023-05-14T04:54:15.833Z,97944.03
2023-05-14T04:57:21.182Z,97933.44
2023-05-14T05:00:25.406Z,97951.53
2023-05-14T05:03:29.484Z,97958.28
2023-05-14T05:06:34.017Z,97958.03
2023-05-14T05:09:37.663Z,97950.81
2023-05-14T05:12:43.277Z,97943.75
2023-05-14T05:16:36.990Z,97938.34
2023-05-14T05:19:44.199Z,97951.22
2023-05-14T05:22:48.288Z,97943.50
2023-05-14T05:25:52.090Z,97935.47
2023-05-14T05:28:57.148Z,97947.75
2023-05-14T05:32:01.424Z,97940.00
2023-05-14T05:35:05.219Z,97943.72
2023-05-14T05:38:09.510Z,97935.28
2023-05-14T05:41:13.431Z,97939.75
2023-05-14T05:44:23.223Z,97936.25
2023-05-14T05:47:30.246Z,97940.94
2023-05-14T05:50:34.252Z,97937.75
2023-05-14T05:53:37.849Z,97933.09
2023-05-14T05:56:41.809Z,97929.94
2023-05-14T05:59:46.634Z,97937.25
2023-05-14T06:02:50.650Z,97925.25
2023-05-14T06:05:54.282Z,97922.28
2023-05-14T06:08:58.031Z,97920.34
2023-05-14T06:12:01.560Z,97921.31
2023-05-14T06:15:08.286Z,97917.69
2023-05-14T06:18:12.186Z,97917.50
2023-05-14T06:21:16.095Z,97920.69
2023-05-14T06:24:20.128Z,97936.38
2023-05-14T06:27:32.204Z,97938.75
2023-05-14T06:34:40.241Z,97914.66
2023-05-14T06:37:53.065Z,97917.59
2023-05-14T06:41:03.747Z,97919.31
2023-05-14T06:44:08.645Z,97917.41
2023-05-14T06:47:14.317Z,97908.03
2023-05-14T06:50:18.733Z,97901.63
2023-05-14T06:53:22.670Z,97909.09
2023-05-14T06:56:26.910Z,97914.31
2023-05-14T06:59:32.086Z,97901.22
2023-05-14T07:02:38.482Z,97894.88
2023-05-14T07:11:16.265Z,97876.72
2023-05-14T07:14:20.543Z,97870.31
2023-05-14T07:17:50.900Z,97872.19
2023-05-14T07:20:55.554Z,97873.34
2023-05-14T07:23:59.517Z,97873.91
2023-05-14T07:27:03.632Z,97873.41
2023-05-14T07:30:09.491Z,97859.91
2023-05-14T07:33:14.560Z,97865.81
2023-05-14T07:36:18.686Z,97864.88
2023-05-14T07:39:22.917Z,97866.06
2023-05-14T07:42:35.790Z,97850.38
2023-05-14T07:45:40.553Z,97859.28
2023-05-14T07:48:45.918Z,97868.16
2023-05-14T07:51:49.570Z,97872.78
2023-05-14T07:54:53.971Z,97870.06
2023-05-14T07:57:57.547Z,97858.84
2023-05-14T08:01:02.334Z,97858.06
2023-05-14T08:04:08.992Z,97845.38
2023-05-14T08:07:15.602Z,97838.69
2023-05-14T08:10:19.175Z,97827.88
2023-05-14T08:13:23.908Z,97826.94
2023-05-14T08:16:27.830Z,97836.72
2023-05-14T08:19:34.282Z,97832.97
2023-05-14T08:22:38.146Z,97821.28
2023-05-14T08:25:42.656Z,97823.91
2023-05-14T08:28:46.560Z,97795.03
2023-05-14T08:31:52.396Z,97782.72
2023-05-14T08:34:57.517Z,97777.03
2023-05-14T08:38:01.586Z,97777.38
2023-05-14T08:41:07.612Z,97783.25
2023-05-14T08:44:15.018Z,97795.97
2023-05-14T08:47:20.841Z,97797.31
2023-05-14T08:50:28.251Z,97793.09
2023-05-14T08:53:32.752Z,97796.72
2023-05-14T08:56:38.654Z,97785.06
2023-05-14T08:59:42.967Z,97801.03
2023-05-14T09:02:49.031Z,97795.94
2023-05-14T09:05:55.071Z,97791.38
2023-05-14T09:08:59.349Z,97802.31
2023-05-14T09:12:03.217Z,97796.16
2023-05-14T09:15:08.885Z,97779.06
2023-05-14T09:18:12.944Z,97789.41
2023-05-14T09:21:19.484Z,97795.03
2023-05-14T09:24:25.442Z,97780.84
2023-05-14T09:27:32.068Z,97788.53
2023-05-14T09:30:37.420Z,97788.19
2023-05-14T09:33:41.469Z,97788.97
2023-05-14T09:36:46.822Z,97785.34
2023-05-14T09:39:54.093Z,97790.97
2023-05-14T09:43:01.927Z,97786.31
2023-05-14T09:46:06.136Z,97775.84
2023-05-14T09:49:10.811Z,97771.06
2023-05-14T09:52:16.675Z,97784.09
2023-05-14T09:55:22.751Z,97786.50
2023-05-14T09:58:30.507Z,97777.06
2023-05-14T10:01:34.063Z,97774.50
2023-05-14T10:04:39.272Z,97782.25
2023-05-14T10:08:05.251Z,97769.66
2023-05-14T10:11:15.593Z,97758.44
2023-05-14T10:14:26.083Z,97745.63
2023-05-14T10:17:33.770Z,97750.22
2023-05-14T10:20:39.068Z,97732.34
2023-05-14T10:23:45.718Z,97733.53
2023-05-14T10:26:50.294Z,97737.44
2023-05-14T10:29:56.342Z,97746.72
2023-05-14T10:33:11.034Z,97738.06
2023-05-14T10:36:15.310Z,97723.53
2023-05-14T10:39:20.309Z,97728.09
2023-05-14T10:42:27.501Z,97710.50
2023-05-14T10:45:34.589Z,97726.47
2023-05-14T10:48:40.365Z,97722.97
2023-05-14T10:51:44.149Z,97710.91
2023-05-14T10:54:52.933Z,97708.09
2023-05-14T10:58:02.524Z,97698.28
2023-05-14T11:01:08.572Z,97687.16
2023-05-14T11:04:20.008Z,97683.63
2023-05-14T11:07:26.261Z,97681.38
2023-05-14T11:10:32.668Z,97661.56
2023-05-14T11:13:37.890Z,97668.38
2023-05-14T11:16:43.904Z,97666.81
2023-05-14T11:19:49.738Z,97682.03
2023-05-14T11:22:55.800Z,97692.13
2023-05-14T11:26:03.773Z,97698.88
2023-05-14T11:29:07.639Z,97705.16
2023-05-14T11:32:12.458Z,97695.94
2023-05-14T11:35:16.776Z,97702.97
2023-05-14T11:38:22.465Z,97702.09
2023-05-14T11:41:28.271Z,97685.91
2023-05-14T11:44:32.834Z,97683.13
2023-05-14T11:47:36.543Z,97687.91
2023-05-14T11:50:41.661Z,97688.88
2023-05-14T11:53:47.194Z,97678.00
2023-05-14T11:56:53.105Z,97681.72
2023-05-14T11:59:59.931Z,97686.53
2023-05-14T12:03:05.019Z,97682.13
2023-05-14T12:06:11.368Z,97681.97
2023-05-14T12:09:24.952Z,97659.72
2023-05-14T12:12:36.503Z,97667.47
2023-05-14T12:15:41.195Z,97660.50
2023-05-14T12:18:46.194Z,97647.94
2023-05-14T12:21:53.301Z,97640.63
2023-05-14T12:24:57.967Z,97624.16
2023-05-14T12:28:15.579Z,97620.78
2023-05-14T12:31:19.355Z,97619.84
2023-05-14T12:34:23.330Z,97606.66
2023-05-14T12:37:27.675Z,97605.97
2023-05-14T12:40:33.143Z,97594.16
2023-05-14T12:43:38.598Z,97598.78
2023-05-14T12:46:45.491Z,97618.84
2023-05-14T12:49:52.073Z,97616.91
2023-05-14T12:52:56.169Z,97604.94
2023-05-14T12:56:01.040Z,97611.16
2023-05-14T12:59:07.125Z,97618.34
2023-05-14T13:02:10.930Z,97625.13
2023-05-14T13:05:15.078Z,97593.44
2023-05-14T13:08:21.535Z,97597.47
2023-05-14T13:11:25.833Z,97595.38
2023-05-14T13:14:31.020Z,97576.81
2023-05-14T13:17:35.472Z,97573.84
2023-05-14T13:20:39.965Z,97580.66
2023-05-14T13:23:45.713Z,97576.97
2023-05-14T13:26:49.439Z,97585.13
2023-05-14T13:29:54.752Z,97593.66
2023-05-14T13:32:59.267Z,97591.63
2023-05-14T13:36:04.465Z,97594.53
2023-05-14T13:39:07.992Z,97589.31
2023-05-14T13:42:13.159Z,97594.66
2023-05-14T13:45:18.285Z,97584.28
2023-05-14T13:48:22.633Z,97603.84
2023-05-14T13:51:26.298Z,97592.28
2023-05-14T13:54:30.411Z,97592.41
2023-05-14T13:57:34.592Z,97593.25
2023-05-14T14:00:41.640Z,97595.88
2023-05-14T14:03:45.222Z,97608.53
2023-05-14T14:06:49.375Z,97604.00
2023-05-14T14:09:53.135Z,97585.63
2023-05-14T14:12:57.232Z,97581.84
2023-05-14T14:16:03.217Z,97578.56
2023-05-14T14:19:09.929Z,97593.66
2023-05-14T14:22:16.417Z,97579.19
2023-05-14T14:25:28.238Z,97574.53
2023-05-14T14:28:32.386Z,97589.03
2023-05-14T14:31:37.914Z,97591.13
2023-05-14T14:34:41.632Z,97585.34
2023-05-14T14:37:49.318Z,97591.25
2023-05-14T14:40:53.095Z,97594.88
2023-05-14T14:43:57.490Z,97580.38
2023-05-14T14:47:02.534Z,97580.69
2023-05-14T14:50:08.063Z,97582.97
2023-05-14T14:53:11.849Z,97580.22
2023-05-14T14:56:16.060Z,97598.81
2023-05-14T14:59:19.777Z,97596.84
2023-05-14T15:02:29.582Z,97603.94
2023-05-14T15:05:34.714Z,97607.94
2023-05-14T15:08:39.438Z,97610.63
2023-05-14T15:11:43.057Z,97615.25
2023-05-14T15:14:47.179Z,97612.38
2023-05-14T15:17:52.453Z,97602.06
2023-05-14T15:20:57.744Z,97588.06
2023-05-14T15:24:01.175Z,97597.94
2023-05-14T15:27:07.626Z,97583.25
2023-05-14T15:30:12.468Z,97581.75
2023-05-14T15:33:19.567Z,97581.78
2023-05-14T15:36:23.333Z,97586.50
2023-05-14T15:39:28.028Z,97585.75
2023-05-14T15:42:33.173Z,97589.78
2023-05-14T15:45:37.254Z,97582.38
2023-05-14T15:48:45.420Z,97577.13
2023-05-14T15:51:51.076Z,97578.31
2023-05-14T15:54:56.258Z,97578.88
2023-05-14T15:58:00.681Z,97584.28
2023-05-14T16:01:04.376Z,97596.25
2023-05-14T16:04:10.179Z,97604.78
2023-05-14T16:07:14.792Z,97609.03
2023-05-14T16:10:22.963Z,97600.56
2023-05-14T16:13:27.412Z,97610.47
2023-05-14T16:16:31.992Z,97609.16
2023-05-14T16:19:37.064Z,97610.88
2023-05-14T16:22:41.237Z,97605.53
2023-05-14T16:25:51.036Z,97602.94
2023-05-14T16:28:55.025Z,97603.47
2023-05-14T16:31:58.792Z,97591.28
2023-05-14T16:35:04.551Z,97600.59
2023-05-14T16:38:09.190Z,97610.22
2023-05-14T16:41:13.538Z,97603.56
2023-05-14T16:44:18.166Z,97603.25
2023-05-14T16:47:22.047Z,97594.22
2023-05-14T16:50:27.597Z,97595.31
2023-05-14T16:53:31.716Z,97581.38
2023-05-14T16:56:35.182Z,97563.63
2023-05-14T16:59:39.346Z,97564.72
2023-05-14T17:02:43.672Z,97559.19
2023-05-14T17:05:51.777Z,97552.25
2023-05-14T17:08:56.658Z,97547.13
2023-05-14T17:12:00.743Z,97548.44
2023-05-14T17:15:05.673Z,97551.38
2023-05-14T17:18:12.158Z,97534.06
2023-05-14T17:21:17.603Z,97523.28
2023-05-14T17:24:21.738Z,97528.63
2023-05-14T17:27:26.404Z,97533.84
2023-05-14T17:30:30.845Z,97534.63
2023-05-14T17:33:35.658Z,97538.16
2023-05-14T17:36:43.110Z,97541.56
2023-05-14T17:39:46.936Z,97537.94
2023-05-14T17:42:50.477Z,97531.06
2023-05-14T17:45:54.986Z,97531.84
2023-05-14T17:48:59.445Z,97529.66
2023-05-14T17:52:04.941Z,97525.16
2023-05-14T17:55:09.433Z,97532.44
2023-05-14T17:58:16.317Z,97532.91
2023-05-14T18:01:20.473Z,97532.69
2023-05-14T18:04:24.376Z,97528.72
2023-05-14T18:07:29.847Z,97523.50
2023-05-14T18:10:33.768Z,97515.94
2023-05-14T18:13:37.337Z,97519.16
2023-05-14T18:16:41.395Z,97528.75
2023-05-14T18:19:53.249Z,97540.53
2023-05-14T18:22:58.708Z,97547.38
2023-05-14T18:26:02.830Z,97552.28
2023-05-14T18:29:07.544Z,97562.38
2023-05-14T18:32:11.130Z,97561.25
2023-05-14T18:35:15.156Z,97572.38
2023-05-14T18:38:20.073Z,97578.13
2023-05-14T18:41:25.765Z,97570.19
2023-05-14T18:44:29.325Z,97567.38
2023-05-14T18:47:34.223Z,97578.84
2023-05-14T18:50:42.289Z,97579.81
2023-05-14T18:53:48.343Z,97587.50
2023-05-14T18:56:52.281Z,97580.88
2023-05-14T18:59:58.301Z,97566.59
2023-05-14T19:03:03.620Z,97560.91
2023-05-14T19:06:09.096Z,97554.91
2023-05-14T19:09:31.087Z,97557.03
2023-05-14T19:15:54.150Z,97562.69
2023-05-14T19:18:59.557Z,97552.34
2023-05-14T19:25:52.034Z,97564.31
2023-05-14T19:29:13.398Z,97582.53
2023-05-14T19:32:36.433Z,97583.72
2023-05-14T19:35:41.448Z,97578.31
2023-05-14T19:38:57.984Z,97579.31
2023-05-14T19:42:05.365Z,97583.13
2023-05-14T19:45:10.468Z,97563.44
2023-05-14T19:48:16.082Z,97538.50
2023-05-14T19:51:22.788Z,97536.00
2023-05-14T19:54:26.860Z,97529.09
2023-05-14T19:57:35.774Z,97520.53
2023-05-14T20:00:39.985Z,97518.22
2023-05-14T20:03:43.838Z,97512.06
2023-05-14T20:06:53.847Z,97512.22
2023-05-14T20:09:58.147Z,97527.25
2023-05-14T20:13:03.716Z,97520.44
2023-05-14T20:16:18.005Z,97521.34
2023-05-14T20:19:22.511Z,97533.22
2023-05-14T20:22:26.755Z,97537.56
2023-05-14T20:25:35.637Z,97549.88
2023-05-14T20:28:43.522Z,97557.88
2023-05-14T20:31:48.793Z,97560.41
2023-05-14T20:34:52.384Z,97561.06
2023-05-14T20:38:01.088Z,97536.25
2023-05-14T20:41:07.937Z,97553.91
2023-05-14T20:44:13.324Z,97568.28
2023-05-14T20:47:21.664Z,97555.03
2023-05-14T20:50:39.340Z,97551.53
2023-05-14T20:53:42.955Z,97519.31
2023-05-14T20:56:50.481Z,97522.22
2023-05-14T21:00:24.994Z,97515.44
2023-05-14T21:03:31.659Z,97528.72
2023-05-14T21:06:35.993Z,97543.22
2023-05-14T21:09:40.266Z,97548.81
2023-05-14T21:12:44.907Z,97552.81
2023-05-14T21:15:50.774Z,97553.38
2023-05-14T21:18:55.240Z,97541.41
2023-05-14T21:21:59.216Z,97535.13
2023-05-14T21:28:30.152Z,97530.19
2023-05-14T21:31:36.318Z,97527.50
2023-05-14T21:34:40.504Z,97514.84
2023-05-14T21:37:44.775Z,97506.50
2023-05-14T21:40:49.681Z,97514.72
2023-05-14T21:43:53.413Z,97500.19
2023-05-14T21:46:58.699Z,97498.00
2023-05-14T21:50:02.152Z,97500.31
2023-05-14T21:53:07.555Z,97484.28
2023-05-14T21:56:11.241Z,97486.78
2023-05-14T21:59:15.247Z,97495.03
2023-05-14T22:02:20.389Z,97498.22
2023-05-14T22:05:26.039Z,97496.09
2023-05-14T22:08:30.805Z,97478.34
2023-05-14T22:11:34.689Z,97478.78
2023-05-14T22:14:38.695Z,97491.91
2023-05-14T22:17:44.134Z,97490.81
2023-05-14T22:20:47.770Z,97479.22
2023-05-14T22:23:52.139Z,97487.78
2023-05-14T22:26:55.836Z,97479.06
2023-05-14T22:29:59.857Z,97473.91
2023-05-14T22:33:05.012Z,97450.34
2023-05-14T22:36:10.606Z,97439.63
2023-05-14T22:39:14.261Z,97432.84
2023-05-14T22:42:20.306Z,97432.06
2023-05-14T22:45:24.183Z,97450.50
2023-05-14T22:48:29.804Z,97461.19
2023-05-14T22:51:33.688Z,97441.63
2023-05-14T22:54:37.699Z,97444.34
2023-05-14T22:57:41.373Z,97439.88
2023-05-14T23:00:47.984Z,97424.53
2023-05-14T23:03:52.876Z,97415.66
2023-05-14T23:06:57.080Z,97405.59
2023-05-14T23:10:00.871Z,97402.00
2023-05-14T23:13:05.466Z,97401.91
2023-05-14T23:16:09.349Z,97402.84
2023-05-14T23:19:14.917Z,97407.13
2023-05-14T23:22:18.841Z,97399.22
2023-05-14T23:25:23.136Z,97400.47
2023-05-14T23:28:27.243Z,97400.22
2023-05-14T23:31:31.507Z,97412.47
2023-05-14T23:34:36.530Z,97419.13
2023-05-14T23:37:47.093Z,97421.97
2023-05-14T23:40:50.900Z,97421.34
2023-05-14T23:43:55.461Z,97407.81
2023-05-14T23:46:59.415Z,97384.03
2023-05-14T23:50:05.665Z,97385.03
2023-05-14T23:53:09.573Z,97374.72
2023-05-14T23:56:13.895Z,97374.44
2023-05-14T23:59:17.515Z,97387.53
